Time;durP1;ratioP1;P1;durP2;ratioP2;P2;SDS_P1;SDS_P2;PMS_P1;PMS_P2;Temp;Humidity;BMP_temperature;BMP_pressure;BME280_temperature;BME280_humidity;BME280_pressure;Samples;Min_cycle;Max_cycle;Signal;HPM_P1;HPM_P2
2023/06/16 00:01:09;;;;;;;0.00;0.00;;;22.20;81.40;;;;;;5072685;28;20043;-74
2023/06/16 00:03:36;;;;;;;1.17;1.08;;;22.00;82.00;;;;;;5070928;28;20048;-74
2023/06/16 00:06:03;;;;;;;0.00;0.00;;;22.00;82.60;;;;;;5072569;28;20024;-75
2023/06/16 00:08:33;;;;;;;4.85;0.85;;;22.00;83.70;;;;;;5072212;28;20051;-75
2023/06/16 00:10:59;;;;;;;0.00;0.00;;;22.00;83.90;;;;;;5073120;28;20035;-74
2023/06/16 00:13:24;;;;;;;0.00;0.00;;;21.90;84.70;;;;;;5076425;28;20033;-75
2023/06/16 00:15:51;;;;;;;0.08;0.08;;;21.90;84.50;;;;;;5076435;28;20063;-74
2023/06/16 00:18:16;;;;;;;0.20;0.20;;;21.90;85.90;;;;;;5076153;28;20079;-75
2023/06/16 00:20:42;;;;;;;0.00;0.00;;;21.90;86.70;;;;;;5076216;28;20024;-75
2023/06/16 00:23:11;;;;;;;0.10;0.10;;;21.60;88.20;;;;;;5075121;28;20032;-75
2023/06/16 00:25:37;;;;;;;0.10;0.10;;;21.30;90.50;;;;;;5076042;28;20024;-76
2023/06/16 00:28:02;;;;;;;1.75;0.65;;;21.20;91.00;;;;;;5076160;28;20082;-75
2023/06/16 00:30:28;;;;;;;0.05;0.05;;;21.10;91.40;;;;;;5074603;28;20024;-76
2023/06/16 00:32:54;;;;;;;0.00;0.00;;;21.30;91.80;;;;;;5074305;28;20431;-75
2023/06/16 00:35:20;;;;;;;0.98;0.98;;;21.50;91.40;;;;;;5076112;28;20032;-75
2023/06/16 00:37:46;;;;;;;0.00;0.00;;;21.50;91.20;;;;;;5075954;28;20028;-75
2023/06/16 00:40:11;;;;;;;1.65;0.80;;;21.60;91.00;;;;;;5075619;28;20477;-75
2023/06/16 00:42:37;;;;;;;0.00;0.00;;;21.80;90.50;;;;;;5074438;28;20044;-75
2023/06/16 00:45:03;;;;;;;0.00;0.00;;;21.60;91.10;;;;;;5075709;28;20024;-75
2023/06/16 00:47:30;;;;;;;0.20;0.20;;;21.50;91.40;;;;;;5075932;28;20023;-75
2023/06/16 00:49:56;;;;;;;0.10;0.10;;;21.10;92.30;;;;;;5075469;28;20041;-75
2023/06/16 00:52:27;;;;;;;3.45;3.15;;;21.00;93.50;;;;;;5075686;28;20027;-75
2023/06/16 00:54:54;;;;;;;0.10;0.10;;;21.00;93.60;;;;;;5075524;28;20086;-74
2023/06/16 00:57:21;;;;;;;0.00;0.00;;;21.20;93.30;;;;;;5075843;28;20419;-74
2023/06/16 00:59:48;;;;;;;0.00;0.00;;;21.30;92.90;;;;;;5074112;28;20453;-75
2023/06/16 01:02:14;;;;;;;0.00;0.00;;;21.30;93.00;;;;;;5074075;28;20031;-75
2023/06/16 01:04:40;;;;;;;0.10;0.10;;;21.50;93.40;;;;;;5075420;28;20094;-75
2023/06/16 01:07:18;;;;;;;2.55;1.10;;;21.50;92.90;;;;;;5075319;28;20023;-75
2023/06/16 01:09:56;;;;;;;0.03;0.03;;;21.10;93.50;;;;;;5073869;28;20127;-75
2023/06/16 01:12:24;;;;;;;0.28;0.28;;;21.10;94.20;;;;;;5075124;28;20370;-75
2023/06/16 01:15:09;;;;;;;0.10;0.10;;;20.80;95.00;;;;;;5061627;28;20036;-75
2023/06/16 01:17:39;;;;;;;0.00;0.00;;;20.70;95.50;;;;;;5073659;28;20029;-75
2023/06/16 01:20:23;;;;;;;0.00;0.00;;;20.90;95.60;;;;;;5073745;28;20032;-76
2023/06/16 01:22:53;;;;;;;0.20;0.20;;;20.90;95.50;;;;;;5074381;28;20494;-75
2023/06/16 01:25:22;;;;;;;0.03;0.03;;;20.80;95.60;;;;;;5066428;28;20151;-75
2023/06/16 01:27:52;;;;;;;0.08;0.08;;;20.90;95.80;;;;;;5074826;28;20074;-75
2023/06/16 01:30:22;;;;;;;0.00;0.00;;;20.70;96.10;;;;;;5073210;28;20493;-74
2023/06/16 01:32:51;;;;;;;0.00;0.00;;;20.60;96.80;;;;;;5074672;28;20500;-75
2023/06/16 01:35:19;;;;;;;0.15;0.15;;;20.50;97.40;;;;;;5074875;28;20040;-75
2023/06/16 01:37:44;;;;;;;0.82;0.60;;;20.50;97.70;;;;;;5073771;28;20008;-75
2023/06/16 01:40:12;;;;;;;0.00;0.00;;;20.40;97.70;;;;;;5074745;28;20028;-75
2023/06/16 01:42:38;;;;;;;1.73;1.63;;;20.50;97.90;;;;;;5074501;28;20521;-75
2023/06/16 01:45:05;;;;;;;0.10;0.10;;;20.50;97.90;;;;;;5073337;28;20033;-75
2023/06/16 01:47:32;;;;;;;0.00;0.00;;;20.40;98.00;;;;;;5073234;28;20162;-75
2023/06/16 01:49:58;;;;;;;0.00;0.00;;;20.20;98.80;;;;;;5073418;28;20040;-75
2023/06/16 01:52:23;;;;;;;0.00;0.00;;;20.30;99.00;;;;;;5074705;28;20036;-75
2023/06/16 01:54:49;;;;;;;0.03;0.03;;;20.30;99.00;;;;;;5074405;28;20075;-75
2023/06/16 01:57:15;;;;;;;0.00;0.00;;;20.20;98.80;;;;;;5073303;28;20465;-75
2023/06/16 01:59:41;;;;;;;0.10;0.10;;;20.10;99.90;;;;;;5072656;28;20377;-75
2023/06/16 02:02:20;;;;;;;0.47;0.47;;;19.80;99.90;;;;;;5074501;28;20025;-74
2023/06/16 02:04:50;;;;;;;0.00;0.00;;;19.90;99.90;;;;;;5074026;28;20376;-75
2023/06/16 02:07:21;;;;;;;0.10;0.10;;;20.10;99.90;;;;;;5074444;28;20024;-75
2023/06/16 02:09:49;;;;;;;0.00;0.00;;;20.10;99.90;;;;;;5072785;28;20036;-75
2023/06/16 02:12:15;;;;;;;0.08;0.08;;;20.10;99.90;;;;;;5072887;28;20033;-75
2023/06/16 02:14:43;;;;;;;1.85;1.17;;;20.10;99.90;;;;;;5077164;28;20048;-75
2023/06/16 02:17:09;;;;;;;0.10;0.10;;;19.80;99.90;;;;;;5074787;28;20021;-75
2023/06/16 02:19:37;;;;;;;0.10;0.10;;;19.30;99.90;;;;;;5072900;28;20492;-75
2023/06/16 02:22:04;;;;;;;0.10;0.10;;;18.90;99.90;;;;;;5072744;28;20047;-75
2023/06/16 02:24:30;;;;;;;0.15;0.15;;;18.80;99.90;;;;;;5074093;28;20056;-75
2023/06/16 02:26:56;;;;;;;0.17;0.17;;;19.10;99.90;;;;;;5073745;28;20377;-75
2023/06/16 02:29:22;;;;;;;0.00;0.00;;;19.20;99.90;;;;;;5073605;28;20032;-75
2023/06/16 02:31:49;;;;;;;0.00;0.00;;;19.20;99.90;;;;;;5073533;28;20024;-75
2023/06/16 02:34:15;;;;;;;0.30;0.30;;;19.20;99.90;;;;;;5073124;28;20440;-75
2023/06/16 02:36:41;;;;;;;0.10;0.10;;;19.20;99.90;;;;;;5071770;28;20031;-75
2023/06/16 02:39:07;;;;;;;9.52;0.55;;;19.10;99.90;;;;;;5073860;28;20064;-76
2023/06/16 02:41:34;;;;;;;0.10;0.10;;;19.10;99.90;;;;;;5071956;28;20013;-75
2023/06/16 02:44:00;;;;;;;0.08;0.08;;;19.00;99.90;;;;;;5055276;28;20094;-75
2023/06/16 02:46:26;;;;;;;0.00;0.00;;;19.00;99.90;;;;;;5072382;28;20027;-75
2023/06/16 02:48:52;;;;;;;0.00;0.00;;;19.20;99.90;;;;;;5071991;28;20032;-75
2023/06/16 02:51:17;;;;;;;0.10;0.10;;;19.40;99.90;;;;;;5071954;28;20123;-75
2023/06/16 02:53:46;;;;;;;0.22;0.22;;;19.40;99.90;;;;;;5071877;28;20028;-75
2023/06/16 02:56:14;;;;;;;0.10;0.10;;;19.00;99.90;;;;;;5072266;28;20039;-75
2023/06/16 02:58:40;;;;;;;0.10;0.10;;;19.00;99.90;;;;;;5055123;28;20020;-76
2023/06/16 03:01:06;;;;;;;0.10;0.10;;;19.30;99.90;;;;;;5071929;28;20354;-76
2023/06/16 03:03:58;;;;;;;0.10;0.10;;;19.40;99.90;;;;;;5071788;28;20440;-75
2023/06/16 03:06:35;;;;;;;0.35;0.35;;;19.40;99.90;;;;;;5072254;28;20048;-75
2023/06/16 03:09:07;;;;;;;0.10;0.10;;;19.00;99.90;;;;;;5071568;28;20127;-74
2023/06/16 03:11:36;;;;;;;0.10;0.10;;;18.70;99.90;;;;;;5072658;28;20017;-76
2023/06/16 03:14:01;;;;;;;0.10;0.10;;;18.70;99.90;;;;;;5071515;28;20583;-75
2023/06/16 03:16:31;;;;;;;0.10;0.10;;;19.00;99.90;;;;;;5071805;28;20020;-75
2023/06/16 03:18:59;;;;;;;0.10;0.10;;;19.00;99.90;;;;;;5071570;28;20127;-75
2023/06/16 03:21:26;;;;;;;0.10;0.10;;;19.10;99.90;;;;;;5055080;28;20452;-75
2023/06/16 03:23:53;;;;;;;0.10;0.10;;;19.10;99.90;;;;;;5071563;28;20098;-75
2023/06/16 03:26:21;;;;;;;0.65;0.65;;;19.20;99.90;;;;;;5071379;28;20070;-75
2023/06/16 03:29:07;;;;;;;0.10;0.10;;;19.20;99.90;;;;;;5072754;28;20036;-75
2023/06/16 03:31:33;;;;;;;0.10;0.10;;;19.00;99.90;;;;;;5071114;28;20044;-75
2023/06/16 03:34:04;;;;;;;0.00;0.00;;;18.80;99.90;;;;;;5054432;28;20043;-76
2023/06/16 03:36:36;;;;;;;0.43;0.43;;;18.90;99.90;;;;;;5071155;28;20029;-76
2023/06/16 03:39:03;;;;;;;0.10;0.10;;;18.60;99.90;;;;;;5071089;28;20442;-76
2023/06/16 03:41:30;;;;;;;0.10;0.10;;;18.60;99.90;;;;;;5070865;28;20369;-76
2023/06/16 03:43:57;;;;;;;0.00;0.00;;;18.60;99.90;;;;;;5071256;28;20033;-75
2023/06/16 03:46:22;;;;;;;0.00;0.00;;;18.50;99.90;;;;;;5072580;28;20111;-75
2023/06/16 03:48:49;;;;;;;0.10;0.10;;;18.40;99.90;;;;;;5070919;28;20115;-75
2023/06/16 03:51:16;;;;;;;0.10;0.10;;;18.70;99.90;;;;;;5071386;28;20087;-75
2023/06/16 03:53:42;;;;;;;0.65;0.65;;;18.80;99.90;;;;;;5063331;28;20025;-75
2023/06/16 03:56:08;;;;;;;0.10;0.10;;;18.40;99.90;;;;;;5072468;28;20028;-75
2023/06/16 03:58:34;;;;;;;0.10;0.10;;;18.60;99.90;;;;;;5071365;28;20047;-76
2023/06/16 04:01:01;;;;;;;0.10;0.10;;;18.50;99.90;;;;;;5070962;28;20423;-75
2023/06/16 04:03:27;;;;;;;0.10;0.10;;;18.50;99.90;;;;;;5070924;28;20043;-75
2023/06/16 04:05:53;;;;;;;0.10;0.10;;;18.60;99.90;;;;;;5070946;28;20036;-75
2023/06/16 04:08:20;;;;;;;19.80;1.20;;;18.40;99.90;;;;;;5072309;28;20024;-76
2023/06/16 04:10:46;;;;;;;0.10;0.10;;;18.40;99.90;;;;;;5053815;28;20057;-75
2023/06/16 04:13:12;;;;;;;4.13;2.65;;;18.40;99.90;;;;;;5070939;28;20112;-75
2023/06/16 04:15:41;;;;;;;0.10;0.10;;;18.50;99.90;;;;;;5071165;28;20048;-76
2023/06/16 04:18:09;;;;;;;0.08;0.08;;;18.60;99.90;;;;;;5071040;28;20508;-75
2023/06/16 04:20:35;;;;;;;0.10;0.10;;;18.80;99.90;;;;;;5072331;28;20166;-75
2023/06/16 04:23:01;;;;;;;0.65;0.50;;;18.80;99.90;;;;;;5070803;28;20029;-75
2023/06/16 04:25:28;;;;;;;0.20;0.20;;;18.70;99.90;;;;;;5070724;28;20025;-76
2023/06/16 04:27:57;;;;;;;0.10;0.10;;;18.40;99.90;;;;;;5056875;28;20067;-75
2023/06/16 04:30:24;;;;;;;0.20;0.20;;;18.70;99.90;;;;;;5053971;28;20035;-76
2023/06/16 04:32:51;;;;;;;1.08;0.75;;;18.90;99.90;;;;;;5054329;28;20020;-75
2023/06/16 04:35:19;;;;;;;0.20;0.20;;;18.80;99.90;;;;;;5070345;28;20020;-75
2023/06/16 04:37:45;;;;;;;0.10;0.10;;;19.00;99.90;;;;;;5071036;28;20021;-76
2023/06/16 04:40:11;;;;;;;0.03;0.03;;;19.00;99.90;;;;;;5071393;28;20494;-75
2023/06/16 04:42:37;;;;;;;0.10;0.10;;;19.20;99.90;;;;;;5070821;28;20432;-75
2023/06/16 04:45:07;;;;;;;0.00;0.00;;;19.40;99.90;;;;;;5070715;28;20397;-75
2023/06/16 04:47:40;;;;;;;0.00;0.00;;;19.30;99.90;;;;;;5070222;28;20024;-76
2023/06/16 04:50:06;;;;;;;0.13;0.13;;;19.40;99.90;;;;;;5070368;28;20033;-75
2023/06/16 04:52:32;;;;;;;1.30;1.20;;;19.40;99.90;;;;;;5072229;28;20074;-76
2023/06/16 04:54:58;;;;;;;0.03;0.03;;;19.50;99.90;;;;;;5070209;28;20036;-75
2023/06/16 04:57:24;;;;;;;1.85;1.75;;;19.70;99.90;;;;;;5070436;28;20016;-76
2023/06/16 04:59:49;;;;;;;0.10;0.10;;;19.90;99.90;;;;;;5073823;28;20054;-75
2023/06/16 05:02:15;;;;;;;0.63;0.63;;;20.10;99.10;;;;;;5074250;28;20112;-76
2023/06/16 05:04:43;;;;;;;0.10;0.10;;;20.00;98.70;;;;;;5075269;28;20047;-75
2023/06/16 05:07:10;;;;;;;0.10;0.10;;;19.80;99.90;;;;;;5062112;28;20025;-76
2023/06/16 05:09:38;;;;;;;0.00;0.00;;;20.10;99.40;;;;;;5073088;28;20036;-76
2023/06/16 05:12:08;;;;;;;0.17;0.17;;;20.20;99.20;;;;;;5074129;28;20193;-75
2023/06/16 05:14:34;;;;;;;0.38;0.38;;;20.30;99.20;;;;;;5073943;28;20032;-75
2023/06/16 05:17:00;;;;;;;0.00;0.00;;;20.40;98.30;;;;;;5073919;28;20044;-75
2023/06/16 05:19:27;;;;;;;0.10;0.10;;;20.80;97.60;;;;;;5073904;28;20557;-76
2023/06/16 05:21:57;;;;;;;0.10;0.10;;;20.60;97.20;;;;;;5073353;28;20029;-76
2023/06/16 05:24:23;;;;;;;0.40;0.40;;;20.80;97.00;;;;;;5073799;28;20032;-74
2023/06/16 05:26:49;;;;;;;1.83;1.67;;;20.90;97.10;;;;;;5057837;28;20020;-78
2023/06/16 05:29:15;;;;;;;0.10;0.10;;;20.70;97.00;;;;;;5073454;28;20036;-74
2023/06/16 05:31:41;;;;;;;0.08;0.08;;;21.20;96.00;;;;;;5073604;28;20107;-74
2023/06/16 05:34:07;;;;;;;0.03;0.03;;;21.30;95.50;;;;;;5073678;28;20025;-77
2023/06/16 05:36:35;;;;;;;0.82;0.82;;;21.30;95.80;;;;;;5058672;28;20476;-75
2023/06/16 05:39:03;;;;;;;0.00;0.00;;;21.30;94.90;;;;;;5047146;28;20033;-76
2023/06/16 05:41:29;;;;;;;1.30;0.70;;;21.50;93.70;;;;;;5065340;28;20027;-77
2023/06/16 05:43:58;;;;;;;0.38;0.38;;;20.90;94.20;;;;;;5073405;28;20111;-74
2023/06/16 05:46:24;;;;;;;3.90;1.35;;;21.00;94.30;;;;;;5056859;28;20033;-74
2023/06/16 05:48:50;;;;;;;0.05;0.05;;;21.30;93.20;;;;;;5049672;28;20061;-75
2023/06/16 05:51:16;;;;;;;0.00;0.00;;;21.50;92.90;;;;;;5052033;28;20060;-74
2023/06/16 05:53:42;;;;;;;0.00;0.00;;;21.60;91.80;;;;;;5053596;28;20060;-74
2023/06/16 05:56:07;;;;;;;0.20;0.20;;;21.80;91.30;;;;;;5051224;28;20025;-73
2023/06/16 05:58:36;;;;;;;2.28;1.60;;;22.00;91.00;;;;;;5050114;28;20021;-74
2023/06/16 06:01:03;;;;;;;0.13;0.13;;;21.60;91.60;;;;;;5050030;28;20036;-73
2023/06/16 06:03:29;;;;;;;0.10;0.10;;;21.90;91.00;;;;;;5049723;28;20078;-75
2023/06/16 06:05:56;;;;;;;0.10;0.10;;;22.10;90.50;;;;;;5048005;28;20490;-74
2023/06/16 06:08:26;;;;;;;0.55;0.52;;;22.10;90.70;;;;;;5051298;28;20068;-74
2023/06/16 06:10:54;;;;;;;0.30;0.30;;;22.40;89.70;;;;;;5052021;28;20029;-75
2023/06/16 06:13:21;;;;;;;2.05;1.65;;;22.40;89.50;;;;;;5051985;28;20473;-75
2023/06/16 06:15:48;;;;;;;0.00;0.00;;;22.50;88.90;;;;;;5051064;28;20124;-74
2023/06/16 06:18:16;;;;;;;3.20;1.20;;;22.50;88.70;;;;;;5052250;28;20500;-75
2023/06/16 06:20:45;;;;;;;0.80;0.68;;;22.20;90.00;;;;;;5050773;28;20469;-76
2023/06/16 06:23:12;;;;;;;0.93;0.50;;;22.10;89.20;;;;;;5066352;28;20029;-76
2023/06/16 06:25:40;;;;;;;0.28;0.28;;;21.90;89.50;;;;;;5050354;28;20405;-75
2023/06/16 06:28:08;;;;;;;0.30;0.30;;;22.20;88.70;;;;;;5051158;28;20120;-76
2023/06/16 06:30:35;;;;;;;0.10;0.10;;;22.50;87.40;;;;;;5046778;28;20117;-75
2023/06/16 06:33:01;;;;;;;0.00;0.00;;;22.70;86.80;;;;;;5049077;28;20043;-74
2023/06/16 06:35:27;;;;;;;2.03;1.00;;;22.60;87.00;;;;;;5048069;28;20025;-76
2023/06/16 06:37:54;;;;;;;0.10;0.10;;;22.60;87.60;;;;;;5050542;28;20069;-75
2023/06/16 06:40:20;;;;;;;0.88;0.88;;;22.80;86.70;;;;;;5028272;28;20026;-75
2023/06/16 06:42:46;;;;;;;0.80;0.52;;;22.80;86.40;;;;;;5059570;28;20039;-75
2023/06/16 06:45:41;;;;;;;0.10;0.10;;;22.90;86.80;;;;;;5050616;28;20079;-75
2023/06/16 06:48:06;;;;;;;0.10;0.10;;;22.80;86.40;;;;;;5053085;28;20032;-75
2023/06/16 06:50:32;;;;;;;2.72;1.55;;;22.80;86.60;;;;;;5049743;28;20025;-75
2023/06/16 06:52:58;;;;;;;0.70;0.70;;;23.10;86.40;;;;;;5044861;28;20088;-76
2023/06/16 06:55:24;;;;;;;0.63;0.30;;;23.30;85.60;;;;;;5052004;28;20025;-75
2023/06/16 06:57:50;;;;;;;0.35;0.35;;;23.20;85.80;;;;;;5048813;28;20025;-75
2023/06/16 07:00:16;;;;;;;0.10;0.10;;;23.30;84.90;;;;;;5051831;28;20485;-76
2023/06/16 07:02:42;;;;;;;0.40;0.40;;;23.50;84.30;;;;;;5048832;28;20428;-79
2023/06/16 07:05:08;;;;;;;1.80;0.75;;;23.40;83.70;;;;;;5049089;28;20028;-79
2023/06/16 07:07:35;;;;;;;0.00;0.00;;;23.80;82.80;;;;;;5042257;28;20029;-78
2023/06/16 07:10:01;;;;;;;0.55;0.38;;;23.60;83.10;;;;;;5045539;28;20222;-79
2023/06/16 07:12:27;;;;;;;0.60;0.55;;;23.30;84.10;;;;;;5050541;28;20039;-75
2023/06/16 07:14:52;;;;;;;0.57;0.57;;;23.10;83.20;;;;;;5048938;28;20111;-78
2023/06/16 07:17:18;;;;;;;0.73;0.55;;;23.30;82.00;;;;;;5047853;28;20474;-80
2023/06/16 07:19:44;;;;;;;0.40;0.30;;;23.70;80.40;;;;;;5049425;28;20070;-78
2023/06/16 07:22:10;;;;;;;0.13;0.13;;;23.50;79.30;;;;;;5048794;28;20029;-79
2023/06/16 07:24:36;;;;;;;0.13;0.13;;;23.40;79.00;;;;;;5051522;28;20060;-80
2023/06/16 07:27:03;;;;;;;0.00;0.00;;;23.60;79.10;;;;;;5047773;28;20047;-78
2023/06/16 07:29:29;;;;;;;1.70;0.43;;;23.90;79.00;;;;;;5044751;28;20511;-80
2023/06/16 07:31:55;;;;;;;0.10;0.10;;;23.70;79.10;;;;;;5050315;28;20021;-80
2023/06/16 07:34:21;;;;;;;0.17;0.17;;;23.80;79.00;;;;;;5057621;28;20055;-80
2023/06/16 07:36:47;;;;;;;0.50;0.47;;;24.20;78.50;;;;;;5047574;28;20035;-82
2023/06/16 07:39:13;;;;;;;2.15;1.63;;;24.20;77.50;;;;;;5051732;28;20090;-77
2023/06/16 07:41:38;;;;;;;1.27;1.17;;;24.20;77.90;;;;;;5052742;28;20078;-80
2023/06/16 07:44:05;;;;;;;0.00;0.00;;;24.30;77.70;;;;;;5067329;28;20093;-82
2023/06/16 07:46:32;;;;;;;0.10;0.10;;;24.20;77.00;;;;;;5048111;28;20017;-80
2023/06/16 07:48:58;;;;;;;11.40;3.80;;;24.60;78.10;;;;;;5050509;28;20028;-78
2023/06/16 07:51:25;;;;;;;0.00;0.00;;;24.60;78.50;;;;;;5056132;28;20033;-76
2023/06/16 07:53:51;;;;;;;2.17;1.75;;;24.50;77.50;;;;;;5059597;28;20092;-80
2023/06/16 07:56:18;;;;;;;0.10;0.10;;;24.90;76.90;;;;;;5058647;28;20416;-77
2023/06/16 07:58:45;;;;;;;0.63;0.63;;;25.00;77.30;;;;;;5050418;28;20029;-78
2023/06/16 08:01:11;;;;;;;1.48;0.65;;;24.80;77.20;;;;;;5054421;28;20028;-79
2023/06/16 08:03:36;;;;;;;0.00;0.00;;;24.50;75.50;;;;;;5054747;28;20126;-79
2023/06/16 08:06:04;;;;;;;0.00;0.00;;;24.60;76.80;;;;;;5059350;28;20442;-81
2023/06/16 08:08:32;;;;;;;0.00;0.00;;;25.20;77.70;;;;;;5044392;28;20059;-82
2023/06/16 08:10:58;;;;;;;1.75;0.73;;;25.10;75.80;;;;;;5068070;28;20027;-82
2023/06/16 08:13:27;;;;;;;0.00;0.00;;;25.00;76.40;;;;;;5046684;28;20642;-81
2023/06/16 08:15:53;;;;;;;0.10;0.10;;;25.00;74.90;;;;;;5058746;28;20017;-80
2023/06/16 08:18:19;;;;;;;0.00;0.00;;;25.20;75.00;;;;;;5046729;28;20048;-81
2023/06/16 08:20:45;;;;;;;0.20;0.20;;;25.50;74.20;;;;;;5064493;28;20025;-81
2023/06/16 08:23:11;;;;;;;0.57;0.22;;;25.40;73.90;;;;;;5071872;28;20047;-81
2023/06/16 08:25:37;;;;;;;0.00;0.00;;;25.60;73.80;;;;;;5058659;28;20029;-80
2023/06/16 08:28:05;;;;;;;0.00;0.00;;;25.70;73.40;;;;;;5062864;28;20038;-77
2023/06/16 08:30:30;;;;;;;0.28;0.28;;;25.70;73.60;;;;;;5063953;28;20029;-76
2023/06/16 08:32:56;;;;;;;0.00;0.00;;;25.60;72.60;;;;;;5068317;28;20556;-75
2023/06/16 08:35:22;;;;;;;0.13;0.13;;;25.70;73.40;;;;;;5075871;28;20020;-76
2023/06/16 08:37:48;;;;;;;0.35;0.35;;;25.20;71.40;;;;;;5074757;28;20461;-76
2023/06/16 08:40:14;;;;;;;2.05;0.95;;;25.50;74.00;;;;;;5075771;28;20035;-75
2023/06/16 08:42:42;;;;;;;0.65;0.65;;;25.60;72.00;;;;;;5059719;28;20029;-76
2023/06/16 08:45:09;;;;;;;0.00;0.00;;;25.90;72.30;;;;;;5068198;28;20078;-76
2023/06/16 08:47:38;;;;;;;0.10;0.10;;;26.10;72.60;;;;;;5060069;28;20117;-76
2023/06/16 08:50:08;;;;;;;8.20;0.95;;;26.30;72.50;;;;;;5055796;28;20038;-77
2023/06/16 08:52:40;;;;;;;1.60;1.05;;;26.50;72.60;;;;;;5063419;28;20393;-77
2023/06/16 08:55:11;;;;;;;0.30;0.30;;;26.50;71.20;;;;;;5067607;28;20435;-78
2023/06/16 08:57:42;;;;;;;;;;;26.80;71.80;;;;;;5063733;28;20049;-75
2023/06/16 09:00:10;;;;;;;0.52;0.52;;;26.70;70.10;;;;;;5058904;28;19913;-75
2023/06/16 09:02:36;;;;;;;0.00;0.00;;;26.30;70.00;;;;;;5072588;28;20389;-75
2023/06/16 09:05:04;;;;;;;0.20;0.20;;;26.50;72.00;;;;;;5063239;28;20032;-75
2023/06/16 09:07:30;;;;;;;0.43;0.43;;;27.10;71.60;;;;;;5069754;28;20491;-75
2023/06/16 09:09:56;;;;;;;1.30;0.75;;;27.10;69.70;;;;;;5061824;28;20033;-78
2023/06/16 09:12:22;;;;;;;3.83;1.38;;;27.00;69.70;;;;;;5072540;28;20034;-76
2023/06/16 09:14:51;;;;;;;0.52;0.45;;;27.10;69.80;;;;;;5074966;28;20044;-79
2023/06/16 09:17:30;;;;;;;0.43;0.43;;;27.30;69.50;;;;;;5066353;28;20032;-79
2023/06/16 09:19:56;;;;;;;3.53;0.75;;;27.20;67.60;;;;;;5053896;28;20040;-79
2023/06/16 09:22:26;;;;;;;22.58;1.00;;;27.50;68.60;;;;;;5057093;28;20071;-77
2023/06/16 09:24:58;;;;;;;0.65;0.65;;;27.80;69.10;;;;;;5063809;28;20047;-81
2023/06/16 09:27:43;;;;;;;0.08;0.08;;;27.70;68.00;;;;;;5059922;28;20051;-78
2023/06/16 09:30:12;;;;;;;0.10;0.10;;;27.10;67.60;;;;;;5045631;28;20032;-78
2023/06/16 09:32:38;;;;;;;0.00;0.00;;;27.40;69.40;;;;;;5055519;28;20036;-78
2023/06/16 09:35:27;;;;;;;0.05;0.05;;;27.50;69.10;;;;;;5073995;28;20119;-78
2023/06/16 09:37:56;;;;;;;1.80;0.85;;;27.70;66.60;;;;;;5053288;28;20040;-78
2023/06/16 09:40:30;;;;;;;0.10;0.10;;;27.60;69.10;;;;;;5039428;28;20182;-78
2023/06/16 09:42:59;;;;;;;4.03;0.32;;;28.00;69.90;;;;;;5052417;28;20092;-82
2023/06/16 09:45:32;;;;;;;0.10;0.10;;;28.20;66.00;;;;;;5046761;28;20041;-75
2023/06/16 09:48:06;;;;;;;0.15;0.15;;;27.80;66.70;;;;;;5047214;28;20039;-75
2023/06/16 09:50:32;;;;;;;0.03;0.03;;;27.90;66.00;;;;;;5050813;28;20038;-76
2023/06/16 09:53:02;;;;;;;0.10;0.10;;;28.40;67.00;;;;;;5053703;28;20025;-75
2023/06/16 09:55:30;;;;;;;1.65;1.55;;;29.00;67.80;;;;;;5050850;28;20154;-76
2023/06/16 09:57:56;;;;;;;0.00;0.00;;;28.70;64.60;;;;;;5050536;28;20059;-75
2023/06/16 10:00:24;;;;;;;2.72;0.82;;;28.50;65.70;;;;;;5046574;28;20049;-75
2023/06/16 10:02:50;;;;;;;0.60;0.60;;;28.60;67.50;;;;;;5050650;28;20036;-74
2023/06/16 10:05:18;;;;;;;0.10;0.10;;;28.60;67.30;;;;;;5053207;28;20101;-75
2023/06/16 10:07:53;;;;;;;0.03;0.03;;;29.20;66.70;;;;;;5053261;28;20385;-74
2023/06/16 10:10:23;;;;;;;0.80;0.68;;;29.00;63.90;;;;;;5052964;28;20040;-73
2023/06/16 10:12:50;;;;;;;2.55;0.55;;;29.10;63.60;;;;;;5052027;28;20150;-75
2023/06/16 10:15:24;;;;;;;0.05;0.05;;;29.30;64.20;;;;;;5053313;28;20075;-77
2023/06/16 10:17:51;;;;;;;0.70;0.70;;;29.60;64.60;;;;;;5053250;28;20082;-76
2023/06/16 10:20:19;;;;;;;0.80;0.80;;;29.70;63.90;;;;;;5051031;28;20071;-77
2023/06/16 10:22:46;;;;;;;0.00;0.00;;;30.00;62.90;;;;;;5053396;28;20033;-77
2023/06/16 10:25:12;;;;;;;0.00;0.00;;;29.90;63.10;;;;;;5053208;28;20023;-78
2023/06/16 10:27:40;;;;;;;0.52;0.52;;;30.30;62.90;;;;;;5052645;28;20137;-77
2023/06/16 10:30:09;;;;;;;0.47;0.47;;;30.40;61.60;;;;;;5052321;28;20093;-77
2023/06/16 10:32:37;;;;;;;1.23;0.90;;;29.70;59.60;;;;;;5044588;28;20029;-77
2023/06/16 10:35:07;;;;;;;0.80;0.80;;;29.40;60.50;;;;;;5059441;28;20045;-77
2023/06/16 10:37:33;;;;;;;0.80;0.68;;;28.80;59.90;;;;;;5067003;28;20017;-77
2023/06/16 10:40:04;;;;;;;0.50;0.50;;;28.40;60.60;;;;;;5043257;28;20083;-77
2023/06/16 10:42:34;;;;;;;0.95;0.95;;;28.60;60.50;;;;;;5050449;28;20028;-77
2023/06/16 10:45:24;;;;;;;0.30;0.30;;;28.30;60.20;;;;;;5052680;28;20041;-77
2023/06/16 10:47:57;;;;;;;3.00;1.70;;;27.90;61.70;;;;;;5051181;28;20111;-77
2023/06/16 10:50:45;;;;;;;0.75;0.40;;;28.40;61.30;;;;;;5047590;28;20036;-77
2023/06/16 10:53:24;;;;;;;0.30;0.30;;;29.40;62.00;;;;;;5043091;28;20049;-77
2023/06/16 10:56:07;;;;;;;0.13;0.13;;;30.00;60.90;;;;;;5051279;28;20055;-77
2023/06/16 10:58:33;;;;;;;0.30;0.30;;;30.30;59.60;;;;;;5045020;28;20029;-77
2023/06/16 11:01:03;;;;;;;0.10;0.10;;;30.40;59.20;;;;;;5050890;28;20040;-78
2023/06/16 11:03:42;;;;;;;0.95;0.63;;;30.90;59.60;;;;;;5052263;28;20029;-77
2023/06/16 11:06:09;;;;;;;0.17;0.17;;;31.00;58.80;;;;;;5052300;28;20024;-77
2023/06/16 11:08:55;;;;;;;0.40;0.40;;;31.20;59.10;;;;;;5050305;28;20029;-74
2023/06/16 11:11:21;;;;;;;0.63;0.45;;;31.20;58.70;;;;;;5052414;28;20028;-77
2023/06/16 11:13:47;;;;;;;0.57;0.55;;;31.40;57.20;;;;;;5052636;28;20032;-76
2023/06/16 11:16:13;;;;;;;0.10;0.10;;;30.10;56.50;;;;;;5052538;28;20377;-74
2023/06/16 11:18:39;;;;;;;0.10;0.10;;;30.50;56.40;;;;;;5052593;28;20032;-73
2023/06/16 11:21:06;;;;;;;0.35;0.35;;;31.00;55.60;;;;;;5052409;28;20025;-76
2023/06/16 11:23:34;;;;;;;1.20;0.88;;;30.30;55.90;;;;;;5051513;28;20025;-78
2023/06/16 11:26:14;;;;;;;0.28;0.28;;;29.60;56.20;;;;;;5050914;28;20354;-79
2023/06/16 11:28:42;;;;;;;0.40;0.40;;;30.10;56.00;;;;;;5052424;28;20036;-77
2023/06/16 11:31:09;;;;;;;3.88;0.75;;;30.40;55.80;;;;;;5052428;28;20551;-78
2023/06/16 11:33:35;;;;;;;0.00;0.00;;;30.50;56.80;;;;;;5055459;28;20042;-78
2023/06/16 11:36:17;;;;;;;0.63;0.63;;;30.20;55.30;;;;;;5072633;28;20024;-78
2023/06/16 11:38:44;;;;;;;0.10;0.10;;;30.60;56.70;;;;;;5072332;28;20020;-78
2023/06/16 11:41:21;;;;;;;0.47;0.47;;;30.70;55.60;;;;;;5072042;28;20527;-79
2023/06/16 11:43:47;;;;;;;0.00;0.00;;;31.50;55.90;;;;;;5062781;28;20094;-79
2023/06/16 11:46:16;;;;;;;0.15;0.15;;;32.50;55.70;;;;;;5050461;28;20086;-78
2023/06/16 11:48:42;;;;;;;0.10;0.10;;;32.60;54.70;;;;;;5052169;28;20033;-76
2023/06/16 11:51:08;;;;;;;0.40;0.40;;;32.50;55.50;;;;;;5052411;28;20062;-78
2023/06/16 11:53:35;;;;;;;1.13;0.40;;;31.80;52.90;;;;;;5052069;28;20029;-78
2023/06/16 11:56:05;;;;;;;0.05;0.05;;;31.10;53.60;;;;;;5052180;28;20037;-78
2023/06/16 11:58:31;;;;;;;0.00;0.00;;;31.60;54.20;;;;;;5052302;28;20064;-77
2023/06/16 12:01:01;;;;;;;0.00;0.00;;;32.00;54.30;;;;;;5052259;28;20132;-79
2023/06/16 12:03:29;;;;;;;2.10;0.50;;;32.00;54.10;;;;;;5052225;28;20527;-77
2023/06/16 12:05:56;;;;;;;0.20;0.20;;;32.40;54.50;;;;;;5051251;28;20037;-76
2023/06/16 12:08:44;;;;;;;4.50;1.38;;;32.80;54.30;;;;;;5055208;28;20021;-77
2023/06/16 12:11:10;;;;;;;0.05;0.05;;;32.20;52.90;;;;;;5054881;28;20041;-77
2023/06/16 12:13:37;;;;;;;0.70;0.63;;;32.30;52.90;;;;;;5056363;28;20043;-76
2023/06/16 12:16:04;;;;;;;0.20;0.20;;;32.00;51.80;;;;;;5054817;28;20039;-77
2023/06/16 12:18:30;;;;;;;0.75;0.35;;;31.30;54.00;;;;;;5056306;28;20021;-76
2023/06/16 12:20:56;;;;;;;0.25;0.25;;;31.80;54.50;;;;;;5056095;28;20481;-76
2023/06/16 12:23:22;;;;;;;0.10;0.10;;;32.50;54.20;;;;;;5055956;28;20055;-74
2023/06/16 12:25:49;;;;;;;0.10;0.10;;;33.30;53.50;;;;;;5056169;28;20021;-75
2023/06/16 12:28:20;;;;;;;0.10;0.10;;;33.40;53.00;;;;;;5056092;28;20028;-76
2023/06/16 12:30:46;;;;;;;1.35;0.95;;;33.20;53.00;;;;;;5051889;28;20075;-79
2023/06/16 12:33:12;;;;;;;0.17;0.17;;;33.60;53.60;;;;;;5056191;28;20024;-79
2023/06/16 12:35:41;;;;;;;1.10;0.73;;;33.30;52.10;;;;;;5070778;28;20054;-78
2023/06/16 12:38:07;;;;;;;0.43;0.43;;;32.60;51.80;;;;;;5058414;28;20409;-78
2023/06/16 12:40:33;;;;;;;0.10;0.10;;;32.80;52.70;;;;;;5055378;28;20029;-78
2023/06/16 12:43:24;;;;;;;1.52;1.20;;;33.10;53.30;;;;;;5055788;28;20033;-78
2023/06/16 12:45:50;;;;;;;;;;;32.00;51.50;;;;;;5055794;28;20029;-78
2023/06/16 12:48:16;;;;;;;2.85;1.55;;;31.70;52.00;;;;;;5055885;28;20381;-75
2023/06/16 12:50:42;;;;;;;0.52;0.52;;;31.90;51.40;;;;;;5055297;28;20033;-77
2023/06/16 12:53:08;;;;;;;2.35;1.65;;;32.10;51.50;;;;;;5055627;28;20024;-77